Ir a foro Ir al Módulo  



logo_vatsim
logo_vatsur

 


VOLEMOS POR COLOMBIA
Agosto 27 de 2014

CARAVANA VFR // Vuelos VFR por la zona centro de Colombia, acompañados de la comunidad de AEROSPORT FLANDES. Esperamos su compañía - Inviten a sus amigos de la red VATSIM a volar y pasar un momento agradable - Full ATC




Ruta
Julio 16 de 2014

Los invitamos a hacer uso de ésta gran herramienta!



 

 
Untitled Document
SKAR 020400Z 00000KT 9999 SCT025 20/18 A3006
SKBG 020400Z VRB02KT 9999 FEW015 SCT200 23/20 A3001
SKBO 020900Z 28004KT 9999 FEW020 07/07 A3028
SKBQ 020800Z 04010KT CAVOK 28/26 A2975
SKCG 020900Z 10004KT 9999 FEW015 SCT200 28/26 A2971
SKCL 020900Z 00000KT 9999 FEW023 SCT090 22/19 A2994
SKPE 020500Z 10005KT 9999 FEW017 20/16 A3008
SKRG 020900Z 00000KT 6000 VCFG BKN010 13/12 A3025 RMK VCFG/N/SE